createdAt,value
2019-01-04T00:01:21.053Z,1.30
2019-01-04T00:03:49.931Z,1.20
2019-01-04T00:06:18.770Z,1.20
2019-01-04T00:08:47.726Z,1.10
2019-01-04T00:11:16.552Z,1.10
2019-01-04T00:13:46.367Z,1.00
2019-01-04T00:16:15.268Z,1.00
2019-01-04T00:18:44.170Z,0.90
2019-01-04T00:21:13.092Z,0.90
2019-01-04T00:23:41.945Z,0.90
2019-01-04T00:26:10.841Z,1.00
2019-01-04T00:28:39.758Z,1.00
2019-01-04T00:31:08.734Z,1.00
2019-01-04T00:33:37.962Z,1.00
2019-01-04T00:36:06.830Z,1.10
2019-01-04T00:38:35.809Z,1.00
2019-01-04T00:41:04.763Z,1.00
2019-01-04T00:43:33.763Z,1.10
2019-01-04T00:46:03.056Z,1.00
2019-01-04T00:48:32.023Z,1.00
2019-01-04T00:51:01.060Z,1.00
2019-01-04T00:53:30.040Z,0.90
2019-01-04T00:56:46.169Z,0.90
2019-01-04T00:59:36.458Z,1.00
2019-01-04T01:02:49.730Z,0.90
2019-01-04T01:05:45.729Z,0.90
2019-01-04T01:09:00.780Z,0.90
2019-01-04T01:12:09.141Z,0.90
2019-01-04T01:15:31.729Z,0.80
2019-01-04T01:18:40.551Z,0.90
2019-01-04T01:21:43.089Z,0.90
2019-01-04T01:24:51.322Z,0.90
2019-01-04T01:27:57.308Z,0.90
2019-01-04T01:31:20.872Z,0.90
2019-01-04T01:34:32.766Z,0.90
2019-01-04T01:37:40.146Z,1.00
2019-01-04T01:41:05.316Z,1.00
2019-01-04T01:44:14.540Z,0.90
2019-01-04T01:46:51.338Z,0.80
2019-01-04T01:49:57.457Z,0.70
2019-01-04T01:52:42.556Z,0.70
2019-01-04T01:55:11.600Z,0.70
2019-01-04T01:57:40.588Z,0.60
2019-01-04T02:00:09.475Z,0.60
2019-01-04T02:02:38.354Z,0.60
2019-01-04T02:05:07.418Z,0.60
2019-01-04T02:07:36.305Z,0.50
2019-01-04T02:10:06.491Z,0.50
2019-01-04T02:12:35.547Z,0.50
2019-01-04T02:15:04.816Z,0.50
2019-01-04T02:17:34.138Z,0.40
2019-01-04T02:20:03.131Z,0.40
2019-01-04T02:22:32.641Z,0.30
2019-01-04T02:25:01.420Z,0.30
2019-01-04T02:27:30.278Z,0.30
2019-01-04T02:30:00.112Z,0.40
2019-01-04T02:32:29.029Z,0.30
2019-01-04T02:34:57.936Z,0.30
2019-01-04T02:37:27.161Z,0.30
2019-01-04T02:39:56.925Z,0.30
2019-01-04T02:42:25.834Z,0.30
2019-01-04T02:44:55.182Z,0.30
2019-01-04T02:47:24.399Z,0.30
2019-01-04T02:49:53.305Z,0.30
2019-01-04T02:52:22.201Z,0.40
2019-01-04T02:54:51.159Z,0.40
2019-01-04T02:57:20.076Z,0.50
2019-01-04T02:59:49.008Z,0.50
2019-01-04T03:02:18.018Z,0.50
2019-01-04T03:04:46.998Z,0.50
2019-01-04T03:07:15.978Z,0.50
2019-01-04T03:09:45.330Z,0.50
2019-01-04T03:12:14.296Z,0.50
2019-01-04T03:14:43.157Z,0.60
2019-01-04T03:17:12.129Z,0.50
2019-01-04T03:19:42.603Z,0.60
2019-01-04T03:22:11.479Z,0.60
2019-01-04T03:24:40.679Z,0.60
2019-01-04T03:27:09.858Z,0.60
2019-01-04T03:29:38.876Z,0.50
2019-01-04T03:32:08.041Z,0.50
2019-01-04T03:34:37.102Z,0.50
2019-01-04T03:37:06.990Z,0.50
2019-01-04T03:39:35.859Z,0.50
2019-01-04T03:42:04.767Z,0.50
2019-01-04T03:44:33.984Z,0.50
2019-01-04T03:47:02.933Z,0.50
2019-01-04T03:49:31.808Z,0.50
2019-01-04T03:52:00.698Z,0.50
2019-01-04T03:54:29.521Z,0.50
2019-01-04T03:56:58.791Z,0.50
2019-01-04T03:59:27.746Z,0.50
2019-01-04T04:01:56.638Z,0.50
2019-01-04T04:04:25.514Z,0.50
2019-01-04T04:06:55.369Z,0.50
2019-01-04T04:09:24.360Z,0.50
2019-01-04T04:11:53.665Z,0.50
2019-01-04T04:14:22.548Z,0.50
2019-01-04T04:16:51.469Z,0.50
2019-01-04T04:19:20.663Z,0.50
2019-01-04T04:21:49.679Z,0.50
2019-01-04T04:24:18.702Z,0.50
2019-01-04T04:26:47.576Z,0.60
2019-01-04T04:29:16.544Z,0.50
2019-01-04T04:31:45.468Z,0.50
2019-01-04T04:34:14.734Z,0.50
2019-01-04T04:36:44.438Z,0.50
2019-01-04T04:39:13.299Z,0.50
2019-01-04T04:41:42.187Z,0.50
2019-01-04T04:44:11.167Z,0.50
2019-01-04T04:46:40.126Z,0.40
2019-01-04T04:49:09.036Z,0.40
2019-01-04T04:51:38.325Z,0.40
2019-01-04T04:54:07.588Z,0.40
2019-01-04T04:56:36.479Z,0.50
2019-01-04T04:59:05.367Z,0.60
2019-01-04T05:01:34.591Z,0.60
2019-01-04T05:04:03.591Z,0.60
2019-01-04T05:06:32.587Z,0.60
2019-01-04T05:09:01.457Z,0.60
2019-01-04T05:11:30.444Z,0.60
2019-01-04T05:13:59.326Z,0.60
2019-01-04T05:16:28.995Z,0.60
2019-01-04T05:18:57.909Z,0.60
2019-01-04T05:21:27.283Z,0.60
2019-01-04T05:23:56.205Z,0.70
2019-01-04T05:26:25.191Z,0.70
2019-01-04T05:28:54.543Z,0.80
2019-01-04T05:31:23.432Z,0.80
2019-01-04T05:33:53.122Z,0.70
2019-01-04T05:36:22.470Z,0.70
2019-01-04T05:38:51.300Z,0.70
2019-01-04T05:41:20.186Z,0.70
2019-01-04T05:43:49.346Z,0.70
2019-01-04T05:46:37.382Z,0.60
2019-01-04T05:49:06.561Z,0.70
2019-01-04T05:51:35.895Z,0.70
2019-01-04T05:54:04.966Z,0.80
2019-01-04T05:56:33.987Z,0.80
2019-01-04T05:59:02.798Z,0.80
2019-01-04T06:01:31.708Z,0.90
2019-01-04T06:04:00.833Z,1.00
2019-01-04T06:06:29.855Z,1.00
2019-01-04T06:08:59.069Z,1.00
2019-01-04T06:11:28.438Z,1.00
2019-01-04T06:13:58.012Z,1.00
2019-01-04T06:16:26.988Z,0.90
2019-01-04T06:18:56.369Z,0.90
2019-01-04T06:21:25.700Z,0.90
2019-01-04T06:23:54.597Z,0.80
2019-01-04T06:26:23.505Z,0.80
2019-01-04T06:28:52.476Z,0.80
2019-01-04T06:31:21.417Z,0.70
2019-01-04T06:33:50.734Z,0.70
2019-01-04T06:36:20.068Z,0.60
2019-01-04T06:38:49.264Z,0.60
2019-01-04T06:41:18.534Z,0.60
2019-01-04T06:43:47.802Z,0.50
2019-01-04T06:46:16.756Z,0.50
2019-01-04T06:48:45.808Z,0.40
2019-01-04T06:51:14.776Z,0.40
2019-01-04T06:53:43.746Z,0.40
2019-01-04T06:56:12.674Z,0.40
2019-01-04T06:58:41.954Z,0.30
2019-01-04T07:01:10.846Z,0.40
2019-01-04T07:03:40.263Z,0.40
2019-01-04T07:06:09.160Z,0.40
2019-01-04T07:08:38.152Z,0.30
2019-01-04T07:11:07.404Z,0.40
2019-01-04T07:13:36.237Z,0.40
2019-01-04T07:16:05.132Z,0.40
2019-01-04T07:18:34.052Z,0.40
2019-01-04T07:21:03.014Z,0.40
2019-01-04T07:23:31.872Z,0.40
2019-01-04T07:26:01.368Z,0.30
2019-01-04T07:28:30.328Z,0.30
2019-01-04T07:30:59.211Z,0.30
2019-01-04T07:33:29.778Z,0.30
2019-01-04T07:35:58.759Z,0.30
2019-01-04T07:38:27.591Z,0.30
2019-01-04T07:40:56.425Z,0.30
2019-01-04T07:43:25.627Z,0.40
2019-01-04T07:45:54.584Z,0.40
2019-01-04T07:48:23.801Z,0.40
2019-01-04T07:50:53.708Z,0.40
2019-01-04T07:53:22.517Z,0.30
2019-01-04T07:55:51.404Z,0.30
2019-01-04T07:58:20.772Z,0.30
2019-01-04T08:00:50.629Z,0.20
2019-01-04T08:03:25.028Z,0.20
2019-01-04T08:05:56.616Z,0.20
2019-01-04T08:08:25.568Z,0.20
2019-01-04T08:10:54.739Z,0.30
2019-01-04T08:13:24.066Z,0.20
2019-01-04T08:15:52.877Z,0.20
2019-01-04T08:18:21.906Z,0.20
2019-01-04T08:20:51.293Z,0.10
2019-01-04T08:23:20.559Z,0.10
2019-01-04T08:25:49.825Z,0.10
2019-01-04T08:28:18.798Z,0.10
2019-01-04T08:30:47.594Z,0.10
2019-01-04T08:33:16.955Z,0.10
2019-01-04T08:35:46.428Z,0.00
2019-01-04T08:38:15.604Z,0.10
2019-01-04T08:40:44.430Z,0.20
2019-01-04T08:43:13.811Z,0.10
2019-01-04T08:45:42.699Z,0.10
2019-01-04T08:48:11.598Z,0.10
2019-01-04T08:50:40.923Z,0.20
2019-01-04T08:53:09.737Z,0.20
2019-01-04T08:55:38.636Z,0.20
2019-01-04T08:58:07.602Z,0.20
2019-01-04T09:00:37.443Z,0.30
2019-01-04T09:03:06.384Z,0.30
2019-01-04T09:05:35.534Z,0.30
2019-01-04T09:08:04.638Z,0.40
2019-01-04T09:10:33.656Z,0.40
2019-01-04T09:13:02.945Z,0.40
2019-01-04T09:15:32.189Z,0.50
2019-01-04T09:18:00.953Z,0.60
2019-01-04T09:20:30.898Z,0.60
2019-01-04T09:22:59.854Z,0.70
2019-01-04T09:25:29.117Z,0.80
2019-01-04T09:27:58.460Z,0.80
2019-01-04T09:30:27.412Z,0.90
2019-01-04T09:32:56.228Z,0.90
2019-01-04T09:35:25.207Z,0.90
2019-01-04T09:37:54.091Z,1.00
2019-01-04T09:40:23.478Z,1.00
2019-01-04T09:42:53.252Z,1.00
2019-01-04T09:45:22.211Z,1.10
2019-01-04T09:47:51.088Z,1.20
2019-01-04T09:50:20.338Z,1.20
2019-01-04T09:52:49.249Z,1.30
2019-01-04T09:55:18.632Z,1.50
2019-01-04T09:57:47.613Z,1.70
2019-01-04T10:00:16.491Z,1.80
2019-01-04T10:02:45.456Z,1.90
2019-01-04T10:05:14.700Z,2.00
2019-01-04T10:07:43.566Z,2.20
2019-01-04T10:10:12.902Z,2.10
2019-01-04T10:12:42.014Z,2.20
2019-01-04T10:15:16.117Z,2.20
2019-01-04T10:17:45.123Z,2.30
2019-01-04T10:20:14.008Z,2.30
2019-01-04T10:22:42.815Z,2.30
2019-01-04T10:25:11.787Z,2.30
2019-01-04T10:27:40.746Z,2.40
2019-01-04T10:30:12.359Z,2.50
2019-01-04T10:32:42.277Z,2.50
2019-01-04T10:35:11.210Z,2.60
2019-01-04T10:37:40.063Z,2.70
2019-01-04T10:40:11.219Z,2.80
2019-01-04T10:42:40.111Z,2.80
2019-01-04T10:45:09.030Z,2.90
2019-01-04T10:47:37.844Z,2.90
2019-01-04T10:50:07.019Z,3.00
2019-01-04T10:52:35.868Z,3.00
2019-01-04T10:55:04.972Z,3.00
2019-01-04T10:57:33.821Z,2.90
2019-01-04T11:00:02.852Z,3.00
2019-01-04T11:02:32.236Z,3.10
2019-01-04T11:05:01.126Z,3.20
2019-01-04T11:07:30.110Z,3.20
2019-01-04T11:09:59.032Z,3.20
2019-01-04T11:12:27.913Z,3.20
2019-01-04T11:14:56.835Z,3.30
2019-01-04T11:17:25.672Z,3.30
2019-01-04T11:19:54.565Z,3.30
2019-01-04T11:22:52.019Z,3.20
2019-01-04T11:25:56.914Z,3.20
2019-01-04T11:29:19.306Z,3.20
2019-01-04T11:32:11.085Z,3.20
2019-01-04T11:35:03.806Z,3.20
2019-01-04T11:38:19.997Z,3.30
2019-01-04T11:41:30.134Z,3.20
2019-01-04T11:44:31.963Z,3.20
2019-01-04T11:47:23.362Z,3.30
2019-01-04T11:50:34.099Z,3.30
2019-01-04T11:53:09.056Z,3.40
2019-01-04T11:55:38.067Z,3.40
2019-01-04T11:58:06.941Z,3.60
2019-01-04T12:00:35.754Z,3.70
2019-01-04T12:03:04.686Z,3.80
2019-01-04T12:05:33.528Z,4.00
2019-01-04T12:08:02.408Z,4.10
2019-01-04T12:10:31.262Z,4.10
2019-01-04T12:13:00.204Z,4.20
2019-01-04T12:15:29.214Z,4.10
2019-01-04T12:17:58.142Z,4.20
2019-01-04T12:20:27.060Z,4.30
2019-01-04T12:22:55.962Z,4.30
2019-01-04T12:25:24.925Z,4.40
2019-01-04T12:27:53.802Z,4.50
2019-01-04T12:30:22.729Z,4.60
2019-01-04T12:32:51.749Z,4.60
2019-01-04T12:35:20.946Z,4.60
2019-01-04T12:37:50.340Z,4.60
2019-01-04T12:40:19.317Z,4.50
2019-01-04T12:42:48.918Z,4.50
2019-01-04T12:45:17.852Z,4.50
2019-01-04T12:47:46.842Z,4.60
2019-01-04T12:50:15.793Z,4.50
2019-01-04T12:52:45.042Z,4.50
2019-01-04T12:55:14.341Z,4.50
2019-01-04T12:57:43.677Z,4.50
2019-01-04T13:00:13.205Z,4.60
2019-01-04T13:02:42.191Z,4.60
2019-01-04T13:05:11.069Z,4.60
2019-01-04T13:07:39.954Z,4.60
2019-01-04T13:10:08.762Z,4.70
2019-01-04T13:12:37.688Z,4.60
2019-01-04T13:15:08.362Z,4.60
2019-01-04T13:17:37.491Z,4.50
2019-01-04T13:20:06.364Z,4.50
2019-01-04T13:22:35.242Z,4.50
2019-01-04T13:25:04.155Z,4.50
2019-01-04T13:27:32.990Z,4.50
2019-01-04T13:30:01.846Z,4.50
2019-01-04T13:32:30.765Z,4.50
2019-01-04T13:34:59.632Z,4.50
2019-01-04T13:37:29.370Z,4.40
2019-01-04T13:39:58.346Z,4.40
2019-01-04T13:42:27.271Z,4.40
2019-01-04T13:44:56.191Z,4.30
2019-01-04T13:47:32.087Z,4.30
2019-01-04T13:49:57.050Z,4.20
2019-01-04T13:52:26.273Z,4.20
2019-01-04T13:54:55.232Z,4.10
2019-01-04T13:57:24.337Z,4.10
2019-01-04T13:59:53.518Z,4.20
2019-01-04T14:02:22.503Z,4.10
2019-01-04T14:04:51.369Z,4.10
2019-01-04T14:07:20.172Z,4.10
2019-01-04T14:09:49.059Z,4.10
2019-01-04T14:12:18.338Z,4.10
2019-01-04T14:14:47.763Z,4.10
2019-01-04T14:17:17.395Z,4.10
2019-01-04T14:19:46.987Z,4.00
2019-01-04T14:22:16.722Z,4.00
2019-01-04T14:24:45.809Z,4.00
2019-01-04T14:27:14.742Z,4.00
2019-01-04T14:29:44.047Z,4.00
2019-01-04T14:32:13.027Z,4.00
2019-01-04T14:34:42.894Z,3.90
2019-01-04T14:37:11.858Z,3.90
2019-01-04T14:39:40.864Z,3.80
2019-01-04T14:42:09.960Z,3.80
2019-01-04T14:44:39.323Z,3.80
2019-01-04T14:47:08.196Z,3.80
2019-01-04T14:49:37.064Z,3.70
2019-01-04T14:52:05.943Z,3.70
2019-01-04T14:54:34.873Z,3.70
2019-01-04T14:57:03.855Z,3.60
2019-01-04T14:59:33.186Z,3.60
2019-01-04T15:02:02.273Z,3.60
2019-01-04T15:04:31.663Z,3.60
2019-01-04T15:07:00.478Z,3.60
2019-01-04T15:09:29.417Z,3.50
2019-01-04T15:11:58.367Z,3.50
2019-01-04T15:14:27.279Z,3.50
2019-01-04T15:16:56.078Z,3.50
2019-01-04T15:19:25.066Z,3.50
2019-01-04T15:21:53.968Z,3.50
2019-01-04T15:24:23.608Z,3.60
2019-01-04T15:26:52.622Z,3.50
2019-01-04T15:29:21.453Z,3.50
2019-01-04T15:31:50.460Z,3.40
2019-01-04T15:34:19.358Z,3.40
2019-01-04T15:36:48.325Z,3.40
2019-01-04T15:39:17.322Z,3.40
2019-01-04T15:41:46.303Z,3.40
2019-01-04T15:44:15.257Z,3.40
2019-01-04T15:46:44.140Z,3.30
2019-01-04T15:49:13.158Z,3.30
2019-01-04T15:51:42.065Z,3.30
2019-01-04T15:54:11.206Z,3.30
2019-01-04T15:56:40.045Z,3.30
2019-01-04T15:59:09.339Z,3.30
2019-01-04T16:01:38.347Z,3.30
2019-01-04T16:04:07.475Z,3.30
2019-01-04T16:06:36.315Z,3.30
2019-01-04T16:09:07.412Z,3.30
2019-01-04T16:11:37.061Z,3.30
2019-01-04T16:14:06.270Z,3.30
2019-01-04T16:16:35.264Z,3.40
2019-01-04T16:19:04.263Z,3.40
2019-01-04T16:21:33.099Z,3.40
2019-01-04T16:24:02.286Z,3.40
2019-01-04T16:26:31.232Z,3.40
2019-01-04T16:29:00.743Z,3.40
2019-01-04T16:31:29.698Z,3.40
2019-01-04T16:33:58.750Z,3.40
2019-01-04T16:36:27.878Z,3.40
2019-01-04T16:38:56.846Z,3.40
2019-01-04T16:41:25.824Z,3.40
2019-01-04T16:43:55.108Z,3.40
2019-01-04T16:46:24.135Z,3.40
2019-01-04T16:48:53.276Z,3.40
2019-01-04T16:51:22.472Z,3.40
2019-01-04T16:53:51.483Z,3.40
2019-01-04T16:56:20.480Z,3.40
2019-01-04T16:58:49.601Z,3.40
2019-01-04T17:01:19.096Z,3.40
2019-01-04T17:03:48.001Z,3.40
2019-01-04T17:06:17.091Z,3.30
2019-01-04T17:08:46.228Z,3.30
2019-01-04T17:11:15.586Z,3.30
2019-01-04T17:13:45.030Z,3.30
2019-01-04T17:16:14.193Z,3.40
2019-01-04T17:18:43.630Z,3.40
2019-01-04T17:21:12.755Z,3.40
2019-01-04T17:23:41.664Z,3.40
2019-01-04T17:26:11.074Z,3.40
2019-01-04T17:28:39.952Z,3.40
2019-01-04T17:31:08.882Z,3.40
2019-01-04T17:33:37.790Z,3.30
2019-01-04T17:36:06.682Z,3.30
2019-01-04T17:38:35.680Z,3.30
2019-01-04T17:41:04.477Z,3.30
2019-01-04T17:43:33.761Z,3.30
2019-01-04T17:46:02.757Z,3.30
2019-01-04T17:48:31.759Z,3.30
2019-01-04T17:51:00.640Z,3.30
2019-01-04T17:53:29.612Z,3.30
2019-01-04T17:55:58.499Z,3.30
2019-01-04T17:58:28.613Z,3.30
2019-01-04T18:00:57.514Z,3.30
2019-01-04T18:03:26.325Z,3.30
2019-01-04T18:05:55.215Z,3.30
2019-01-04T18:08:24.177Z,3.30
2019-01-04T18:10:53.076Z,3.30
2019-01-04T18:13:21.993Z,3.30
2019-01-04T18:15:50.870Z,3.30
2019-01-04T18:18:20.195Z,3.30
2019-01-04T18:20:49.044Z,3.30
2019-01-04T18:23:18.584Z,3.30
2019-01-04T18:25:47.551Z,3.30
2019-01-04T18:28:16.443Z,3.30
2019-01-04T18:30:45.359Z,3.30
2019-01-04T18:33:14.342Z,3.30
2019-01-04T18:35:43.282Z,3.30
2019-01-04T18:38:12.259Z,3.30
2019-01-04T18:40:41.415Z,3.30
2019-01-04T18:43:10.577Z,3.30
2019-01-04T18:45:39.855Z,3.30
2019-01-04T18:48:08.814Z,3.30
2019-01-04T18:50:37.813Z,3.30
2019-01-04T18:53:06.898Z,3.30
2019-01-04T18:55:35.905Z,3.30
2019-01-04T18:58:04.804Z,3.30
2019-01-04T19:00:33.584Z,3.30
2019-01-04T19:03:02.757Z,3.30
2019-01-04T19:05:31.710Z,3.40
2019-01-04T19:08:00.634Z,3.30
2019-01-04T19:10:29.589Z,3.30
2019-01-04T19:12:58.536Z,3.30
2019-01-04T19:15:27.454Z,3.30
2019-01-04T19:17:56.330Z,3.30
2019-01-04T19:20:25.474Z,3.30
2019-01-04T19:22:54.673Z,3.40
2019-01-04T19:25:23.677Z,3.30
2019-01-04T19:27:52.989Z,3.30
2019-01-04T19:30:21.962Z,3.30
2019-01-04T19:32:50.986Z,3.30
2019-01-04T19:35:19.959Z,3.30
2019-01-04T19:37:48.761Z,3.30
2019-01-04T19:40:17.765Z,3.30
2019-01-04T19:42:46.775Z,3.30
2019-01-04T19:45:15.776Z,3.40
2019-01-04T19:47:44.607Z,3.40
2019-01-04T19:50:23.632Z,3.40
2019-01-04T19:52:52.611Z,3.40
2019-01-04T19:55:21.772Z,3.30
2019-01-04T19:57:50.752Z,3.30
2019-01-04T20:00:19.569Z,3.40
2019-01-04T20:02:48.552Z,3.40
2019-01-04T20:05:38.345Z,3.40
2019-01-04T20:08:46.441Z,3.40
2019-01-04T20:12:35.155Z,3.40
2019-01-04T20:15:53.988Z,3.30
2019-01-04T20:18:52.119Z,3.30
2019-01-04T20:21:40.970Z,3.30
2019-01-04T20:24:31.966Z,3.30
2019-01-04T20:27:16.226Z,3.30
2019-01-04T20:30:16.467Z,3.30
2019-01-04T20:33:03.157Z,3.30
2019-01-04T20:36:03.414Z,3.30
2019-01-04T20:39:09.582Z,3.30
2019-01-04T20:41:57.411Z,3.30
2019-01-04T20:44:44.014Z,3.30
2019-01-04T20:47:30.732Z,3.30
2019-01-04T20:50:16.987Z,3.30
2019-01-04T20:53:03.818Z,3.30
2019-01-04T20:55:53.418Z,3.30
2019-01-04T20:58:50.412Z,3.30
2019-01-04T21:01:44.586Z,3.30
2019-01-04T21:04:42.590Z,3.30
2019-01-04T21:07:39.851Z,3.30
2019-01-04T21:10:35.539Z,3.30
2019-01-04T21:13:35.533Z,3.30
2019-01-04T21:16:22.497Z,3.30
2019-01-04T21:19:18.637Z,3.30
2019-01-04T21:22:05.974Z,3.30
2019-01-04T21:24:59.788Z,3.30
2019-01-04T21:27:54.019Z,3.20
2019-01-04T21:30:37.635Z,3.20
2019-01-04T21:33:24.182Z,3.30
2019-01-04T21:36:18.686Z,3.30
2019-01-04T21:39:07.704Z,3.30
2019-01-04T21:42:00.011Z,3.20
2019-01-04T21:45:00.563Z,3.20
2019-01-04T21:47:48.309Z,3.20
2019-01-04T21:50:37.010Z,3.20
2019-01-04T21:53:18.358Z,3.20
2019-01-04T21:56:05.152Z,3.20
2019-01-04T21:59:08.927Z,3.20
2019-01-04T22:02:10.800Z,3.20
2019-01-04T22:05:17.323Z,3.20
2019-01-04T22:08:03.982Z,3.10
2019-01-04T22:11:02.941Z,3.10
2019-01-04T22:13:51.219Z,3.10
2019-01-04T22:16:41.921Z,3.10
2019-01-04T22:19:38.814Z,3.10
2019-01-04T22:22:23.979Z,3.10
2019-01-04T22:25:21.055Z,3.10
2019-01-04T22:28:10.183Z,3.10
2019-01-04T22:30:59.551Z,3.10
2019-01-04T22:33:40.383Z,3.10
2019-01-04T22:36:24.937Z,3.10
2019-01-04T22:39:12.395Z,3.00
2019-01-04T22:42:03.126Z,3.00
2019-01-04T22:44:58.676Z,3.00
2019-01-04T22:47:45.656Z,3.00
2019-01-04T22:50:32.464Z,3.00
2019-01-04T22:53:35.631Z,3.00
2019-01-04T22:56:26.495Z,3.00
2019-01-04T22:59:13.741Z,3.00
2019-01-04T23:02:00.437Z,3.00
2019-01-04T23:04:57.197Z,3.00
2019-01-04T23:07:47.964Z,3.00
2019-01-04T23:10:41.648Z,2.90
2019-01-04T23:13:34.482Z,2.90
2019-01-04T23:16:21.138Z,2.90
2019-01-04T23:19:08.024Z,3.00
2019-01-04T23:22:11.809Z,3.00
2019-01-04T23:24:59.955Z,3.00
2019-01-04T23:27:44.474Z,3.00
2019-01-04T23:30:25.125Z,3.00
2019-01-04T23:33:11.724Z,3.00
2019-01-04T23:36:07.431Z,3.00
2019-01-04T23:39:04.480Z,2.90
2019-01-04T23:41:52.381Z,3.00
2019-01-04T23:44:39.006Z,3.00
2019-01-04T23:47:39.669Z,3.00
2019-01-04T23:50:31.857Z,3.00
2019-01-04T23:53:22.636Z,3.00
2019-01-04T23:56:09.400Z,3.00
2019-01-04T23:58:57.149Z,3.00
